Oglasa — ITMG — position and weather

sailwx.info

Track history (hours):
 
Tides and Currents Weather Stations Pressure Air Temp Water Temp Dewpoint Dewpoint Depression Visibility Wind Speed Wind Dir Waves Ship Positions

Oglasa

Last reported at 2015-Aug-01 07:18 UTC. Time now 2015-Aug-01 11:53 UTC.
Position N 42°50' E 010°22'.

Length 91 m; draft 3.6 m.

Type: Ship. MMSI: 247046800.

Date/timePositionNaut miles runAvg speedWind from/ knotsBaromVisibWave heightAir tempDewpointWater temp
2015-Aug-01 07:18N 42°50' E 010°22'4 2.2
2015-Aug-01 05:32N 42°53' E 010°26'0 0.0
2015-Jul-31 17:33N 42°53' E 010°26'7 6.4
2015-Jul-31 16:32N 42°49' E 010°19'1212.3
2015-Jul-31 15:33N 42°56' E 010°33'6 5.9
2015-Jul-31 14:33N 42°53' E 010°26'6 6.2
2015-Jul-31 13:32N 42°49' E 010°19'12 8.5
2015-Jul-31 12:06N 42°56' E 010°33'611.3
2015-Jul-31 11:33N 42°53' E 010°25'6 5.7
2015-Jul-31 10:30N 42°49' E 010°19'4 0.7
2015-Jul-31 04:09N 42°52' E 010°23'1 0.1
2015-Jul-30 15:28N 42°53' E 010°24'5 5.5
2015-Jul-30 14:32N 42°49' E 010°20'3 1.5
2015-Jul-30 12:20N 42°51' E 010°22'2 2.5
2015-Jul-30 11:24N 42°49' E 010°21'5 2.5
2015-Jul-30 09:30N 42°53' E 010°25'4 3.5
2015-Jul-30 08:21N 42°50' E 010°21'5 1.7
2015-Jul-30 05:33N 42°53' E 010°26'7 6.6
2015-Jul-30 04:33N 42°49' E 010°19'7 0.5
2015-Jul-29 15:34N 42°53' E 010°27'0 0.0
2015-Jul-29 05:34N 42°53' E 010°27'3 2.4
2015-Jul-29 04:13N 42°51' E 010°23'9 0.7
2015-Jul-28 16:03N 42°56' E 010°33'612.3
2015-Jul-28 15:34N 42°53' E 010°26'6 6.2
2015-Jul-28 14:32N 42°49' E 010°19'6 3.2
2015-Jul-28 12:34N 42°53' E 010°26'0 0.1
2015-Jul-28 09:33N 42°53' E 010°26'3 2.2
2015-Jul-28 08:16N 42°51' E 010°23'4 1.3
2015-Jul-28 05:32N 42°53' E 010°27'6 6.6
2015-Jul-28 04:33N 42°49' E 010°21'6 0.6
2015-Jul-27 17:34N 42°53' E 010°27'5 4.3
2015-Jul-27 16:19N 42°50' E 010°21'0 0.1
2015-Jul-27 13:27N 42°49' E 010°21'  
2015-Jul-24 18:08N 42°56' E 010°33'5 8.8
2015-Jul-24 17:34N 42°53' E 010°27'7 7.1
2015-Jul-24 16:33N 42°49' E 010°19'6 3.1
2015-Jul-24 14:32N 42°53' E 010°26'6 6.2
2015-Jul-24 13:31N 42°49' E 010°20'7 3.3
2015-Jul-24 11:33N 42°53' E 010°26'7 6.4
2015-Jul-24 10:32N 42°49' E 010°20'6 3.1
2015-Jul-24 08:33N 42°53' E 010°25'6 5.4
2015-Jul-24 07:29N 42°49' E 010°20'6 3.1
2015-Jul-24 05:33N 42°53' E 010°26'6 5.4
2015-Jul-24 04:27N 42°49' E 010°20'6 0.5
2015-Jul-23 15:34N 42°53' E 010°26'5 4.6
2015-Jul-23 14:23N 42°49' E 010°21'6 3.1
2015-Jul-23 12:33N 42°53' E 010°26'6 4.8
2015-Jul-23 11:22N 42°49' E 010°21'6 3.2
2015-Jul-23 09:34N 42°53' E 010°26'7 6.6
2015-Jul-23 08:32N 42°49' E 010°19'6 2.1
2015-Jul-23 05:32N 42°53' E 010°26'6 5.1
2015-Jul-23 04:23N 42°49' E 010°20'12 1.3
2015-Jul-22 19:33N 42°56' E 010°33'0 0.0
2015-Jul-22 16:10N 42°56' E 010°33'5 8.5
2015-Jul-22 15:33N 42°53' E 010°27'7 6.5
2015-Jul-22 14:29N 42°49' E 010°19'6 3.3
2015-Jul-22 12:33N 42°53' E 010°26'7 6.4
2015-Jul-22 11:32N 42°49' E 010°19'12 9.0
2015-Jul-22 10:12N 42°56' E 010°33'6 8.6
2015-Jul-22 09:33N 42°53' E 010°26'7 6.3
2015-Jul-22 08:31N 42°49' E 010°19'  
Track history (hours):
 
Tides and Currents Weather Stations Pressure Air Temp Water Temp Dewpoint Dewpoint Depression Visibility Wind Speed Wind Dir Waves Ship Positions

Oglasa

Last reported at 2015-Aug-01 07:18 UTC. Time now 2015-Aug-01 11:53 UTC.
Position N 42°50' E 010°22'.

Length 91 m; draft 3.6 m.

Type: Ship. MMSI: 247046800.

Date/timePositionNaut miles runAvg speedWind from/ knotsBaromVisibWave heightAir tempDewpointWater temp
2015-Aug-01 07:18N 42°50' E 010°22'4 2.2
2015-Aug-01 05:32N 42°53' E 010°26'0 0.0
2015-Jul-31 17:33N 42°53' E 010°26'7 6.4
2015-Jul-31 16:32N 42°49' E 010°19'1212.3
2015-Jul-31 15:33N 42°56' E 010°33'6 5.9
2015-Jul-31 14:33N 42°53' E 010°26'6 6.2
2015-Jul-31 13:32N 42°49' E 010°19'12 8.5
2015-Jul-31 12:06N 42°56' E 010°33'611.3
2015-Jul-31 11:33N 42°53' E 010°25'6 5.7
2015-Jul-31 10:30N 42°49' E 010°19'4 0.7
2015-Jul-31 04:09N 42°52' E 010°23'1 0.1
2015-Jul-30 15:28N 42°53' E 010°24'5 5.5
2015-Jul-30 14:32N 42°49' E 010°20'3 1.5
2015-Jul-30 12:20N 42°51' E 010°22'2 2.5
2015-Jul-30 11:24N 42°49' E 010°21'5 2.5
2015-Jul-30 09:30N 42°53' E 010°25'4 3.5
2015-Jul-30 08:21N 42°50' E 010°21'5 1.7
2015-Jul-30 05:33N 42°53' E 010°26'7 6.6
2015-Jul-30 04:33N 42°49' E 010°19'7 0.5
2015-Jul-29 15:34N 42°53' E 010°27'0 0.0
2015-Jul-29 05:34N 42°53' E 010°27'3 2.4
2015-Jul-29 04:13N 42°51' E 010°23'9 0.7
2015-Jul-28 16:03N 42°56' E 010°33'612.3
2015-Jul-28 15:34N 42°53' E 010°26'6 6.2
2015-Jul-28 14:32N 42°49' E 010°19'6 3.2
2015-Jul-28 12:34N 42°53' E 010°26'0 0.1
2015-Jul-28 09:33N 42°53' E 010°26'3 2.2
2015-Jul-28 08:16N 42°51' E 010°23'4 1.3
2015-Jul-28 05:32N 42°53' E 010°27'6 6.6
2015-Jul-28 04:33N 42°49' E 010°21'6 0.6
2015-Jul-27 17:34N 42°53' E 010°27'5 4.3
2015-Jul-27 16:19N 42°50' E 010°21'0 0.1
2015-Jul-27 13:27N 42°49' E 010°21'  
2015-Jul-24 18:08N 42°56' E 010°33'5 8.8
2015-Jul-24 17:34N 42°53' E 010°27'7 7.1
2015-Jul-24 16:33N 42°49' E 010°19'6 3.1
2015-Jul-24 14:32N 42°53' E 010°26'6 6.2
2015-Jul-24 13:31N 42°49' E 010°20'7 3.3
2015-Jul-24 11:33N 42°53' E 010°26'7 6.4
2015-Jul-24 10:32N 42°49' E 010°20'6 3.1
2015-Jul-24 08:33N 42°53' E 010°25'6 5.4
2015-Jul-24 07:29N 42°49' E 010°20'6 3.1
2015-Jul-24 05:33N 42°53' E 010°26'6 5.4
2015-Jul-24 04:27N 42°49' E 010°20'6 0.5
2015-Jul-23 15:34N 42°53' E 010°26'5 4.6
2015-Jul-23 14:23N 42°49' E 010°21'6 3.1
2015-Jul-23 12:33N 42°53' E 010°26'6 4.8
2015-Jul-23 11:22N 42°49' E 010°21'6 3.2
2015-Jul-23 09:34N 42°53' E 010°26'7 6.6
2015-Jul-23 08:32N 42°49' E 010°19'6 2.1
2015-Jul-23 05:32N 42°53' E 010°26'6 5.1
2015-Jul-23 04:23N 42°49' E 010°20'12 1.3
2015-Jul-22 19:33N 42°56' E 010°33'0 0.0
2015-Jul-22 16:10N 42°56' E 010°33'5 8.5
2015-Jul-22 15:33N 42°53' E 010°27'7 6.5
2015-Jul-22 14:29N 42°49' E 010°19'6 3.3
2015-Jul-22 12:33N 42°53' E 010°26'7 6.4
2015-Jul-22 11:32N 42°49' E 010°19'12 9.0
2015-Jul-22 10:12N 42°56' E 010°33'6 8.6
2015-Jul-22 09:33N 42°53' E 010°26'7 6.3
2015-Jul-22 08:31N 42°49' E 010°19'  

Dump ship's entire track history